createdAt,value
2018-12-01T00:02:23.843Z,317.05
2018-12-01T00:05:40.420Z,340.30
2018-12-01T00:08:39.022Z,322.88
2018-12-01T00:11:37.650Z,307.67
2018-12-01T00:14:35.763Z,313.60
2018-12-01T00:17:35.016Z,320.77
2018-12-01T00:20:41.346Z,328.20
2018-12-01T00:23:40.005Z,306.80
2018-12-01T00:26:39.400Z,324.92
2018-12-01T00:29:38.420Z,316.27
2018-12-01T00:32:36.860Z,319.93
2018-12-01T00:35:33.973Z,302.25
2018-12-01T00:38:32.678Z,306.13
2018-12-01T00:41:31.269Z,308.07
2018-12-01T00:44:29.321Z,327.93
2018-12-01T00:47:25.977Z,313.80
2018-12-01T00:50:25.103Z,308.85
2018-12-01T00:53:23.330Z,306.98
2018-12-01T00:56:21.628Z,308.82
2018-12-01T00:59:20.323Z,304.65
2018-12-01T01:02:34.921Z,318.73
2018-12-01T01:05:41.690Z,298.77
2018-12-01T01:08:41.115Z,300.35
2018-12-01T01:11:40.271Z,288.18
2018-12-01T01:14:38.784Z,307.35
2018-12-01T01:17:37.224Z,300.32
2018-12-01T01:20:35.917Z,310.15
2018-12-01T01:23:34.146Z,316.75
2018-12-01T01:26:32.967Z,297.05
2018-12-01T01:29:31.920Z,342.20
2018-12-01T01:32:30.589Z,360.77
2018-12-01T01:35:29.250Z,333.75
2018-12-01T01:38:27.376Z,330.20
2018-12-01T01:41:27.365Z,315.73
2018-12-01T01:44:26.462Z,317.55
2018-12-01T01:47:26.130Z,338.20
2018-12-01T01:50:35.672Z,325.90
2018-12-01T01:53:33.746Z,335.23
2018-12-01T01:56:33.410Z,343.75
2018-12-01T01:59:32.944Z,383.47
2018-12-01T02:02:32.401Z,365.35
2018-12-01T02:05:36.229Z,355.92
2018-12-01T02:08:36.710Z,341.85
2018-12-01T02:11:36.818Z,338.85
2018-12-01T02:14:40.918Z,344.48
2018-12-01T02:17:37.295Z,343.67
2018-12-01T02:20:37.801Z,342.35
2018-12-01T02:23:38.934Z,370.42
2018-12-01T02:26:40.485Z,381.75
2018-12-01T02:29:41.806Z,358.43
2018-12-01T02:32:43.430Z,371.48
2018-12-01T02:35:44.976Z,393.82
2018-12-01T02:38:49.554Z,389.48
2018-12-01T02:41:49.621Z,415.82
2018-12-01T02:45:32.853Z,393.37
2018-12-01T02:48:37.452Z,413.00
2018-12-01T02:51:38.233Z,433.23
2018-12-01T02:54:39.234Z,407.75
2018-12-01T02:57:40.178Z,446.20
2018-12-01T03:00:40.980Z,420.38
2018-12-01T03:03:41.221Z,394.65
2018-12-01T03:06:41.432Z,403.58
2018-12-01T03:09:41.070Z,373.70
2018-12-01T03:12:41.745Z,407.95
2018-12-01T03:15:41.029Z,354.82
2018-12-01T03:18:40.214Z,364.52
2018-12-01T03:21:39.813Z,324.58
2018-12-01T03:24:42.245Z,311.02
2018-12-01T03:27:42.187Z,348.38
2018-12-01T03:30:42.225Z,363.73
2018-12-01T03:33:46.213Z,352.15
2018-12-01T03:36:44.866Z,319.00
2018-12-01T03:39:44.677Z,372.75
2018-12-01T03:42:48.140Z,300.52
2018-12-01T03:45:48.211Z,290.18
2018-12-01T03:48:48.876Z,294.52
2018-12-01T03:51:52.584Z,305.10
2018-12-01T03:54:53.070Z,303.23
2018-12-01T03:57:53.142Z,300.15
2018-12-01T04:00:51.709Z,326.67
2018-12-01T04:03:50.799Z,295.07
2018-12-01T04:06:51.227Z,294.77
2018-12-01T04:09:50.726Z,312.77
2018-12-01T04:12:47.710Z,315.27
2018-12-01T04:15:44.804Z,305.70
2018-12-01T04:18:42.504Z,299.80
2018-12-01T04:21:38.931Z,293.35
2018-12-01T04:24:42.952Z,340.62
2018-12-01T04:28:23.071Z,286.70
2018-12-01T04:31:17.154Z,296.07
2018-12-01T04:38:20.078Z,295.40
2018-12-01T04:41:22.107Z,318.52
2018-12-01T04:44:18.923Z,266.60
2018-12-01T04:47:16.592Z,280.00
2018-12-01T04:50:16.142Z,273.38
2018-12-01T04:53:13.751Z,290.60
2018-12-01T04:56:36.572Z,280.32
2018-12-01T05:00:01.458Z,267.73
2018-12-01T05:03:01.279Z,257.73
2018-12-01T05:06:11.767Z,261.80
2018-12-01T05:09:12.212Z,202.13
2018-12-01T05:12:20.469Z,219.60
2018-12-01T05:15:27.862Z,239.35
2018-12-01T05:18:28.102Z,189.67
2018-12-01T05:21:28.776Z,136.60
2018-12-01T05:24:27.247Z,105.60
2018-12-01T05:27:27.942Z,122.10
2018-12-01T05:30:26.528Z,135.97
2018-12-01T05:33:26.341Z,139.03
2018-12-01T05:36:38.282Z,136.90
2018-12-01T05:39:40.034Z,176.97
2018-12-01T05:42:55.517Z,184.97
2018-12-01T05:46:00.032Z,195.38
2018-12-01T05:48:59.926Z,234.27
2018-12-01T05:52:02.677Z,228.85
2018-12-01T05:54:59.680Z,190.15
2018-12-01T05:57:57.281Z,209.80
2018-12-01T06:00:55.943Z,218.35
2018-12-01T06:03:56.164Z,200.55
2018-12-01T06:06:55.256Z,203.07
2018-12-01T06:10:18.442Z,199.65
2018-12-01T06:13:24.434Z,190.57
2018-12-01T06:16:22.192Z,189.50
2018-12-01T06:19:19.843Z,194.17
2018-12-01T06:22:33.997Z,190.77
2018-12-01T06:25:42.390Z,193.22
2018-12-01T06:28:42.166Z,175.18
2018-12-01T06:31:38.903Z,154.03
2018-12-01T06:34:38.798Z,176.15
2018-12-01T06:37:36.498Z,177.30
2018-12-01T06:40:38.055Z,171.85
2018-12-01T06:43:38.035Z,158.15
2018-12-01T06:46:35.899Z,157.75
2018-12-01T06:49:33.169Z,144.37
2018-12-01T06:52:30.698Z,118.17
2018-12-01T06:55:28.081Z,141.95
2018-12-01T06:58:31.113Z,130.22
2018-12-01T07:01:27.806Z,138.10
2018-12-01T07:04:25.974Z,144.05
2018-12-01T07:07:23.273Z,144.40
2018-12-01T07:10:21.756Z,148.28
2018-12-01T07:13:21.795Z,147.13
2018-12-01T07:16:26.718Z,125.50
2018-12-01T07:19:29.830Z,142.05
2018-12-01T07:22:34.615Z,140.90
2018-12-01T07:25:36.327Z,138.97
2018-12-01T07:28:35.173Z,160.22
2018-12-01T07:31:34.476Z,169.35
2018-12-01T07:34:33.759Z,163.10
2018-12-01T07:37:31.985Z,160.75
2018-12-01T07:40:29.685Z,157.57
2018-12-01T07:43:31.241Z,155.20
2018-12-01T07:46:29.918Z,170.32
2018-12-01T07:49:30.134Z,157.15
2018-12-01T07:52:29.345Z,151.78
2018-12-01T07:55:31.049Z,161.05
2018-12-01T07:58:30.933Z,165.97
2018-12-01T08:01:29.062Z,171.55
2018-12-01T08:04:33.113Z,173.78
2018-12-01T08:07:27.339Z,160.00
2018-12-01T08:10:25.457Z,174.50
2018-12-01T08:13:30.726Z,160.63
2018-12-01T08:17:11.539Z,177.60
2018-12-01T08:20:10.737Z,176.30
2018-12-01T08:23:08.528Z,157.65
2018-12-01T08:26:06.695Z,160.40
2018-12-01T08:29:04.469Z,181.05
2018-12-01T08:32:03.268Z,162.77
2018-12-01T08:35:01.633Z,173.85
2018-12-01T08:38:01.836Z,163.57
2018-12-01T08:40:59.891Z,173.95
2018-12-01T08:43:57.574Z,158.12
2018-12-01T08:46:54.452Z,161.20
2018-12-01T08:49:51.668Z,175.30
2018-12-01T08:52:50.936Z,176.25
2018-12-01T08:55:52.714Z,174.20
2018-12-01T08:58:54.856Z,170.40
2018-12-01T09:02:09.865Z,173.22
2018-12-01T09:05:07.862Z,174.10
2018-12-01T09:08:07.064Z,169.32
2018-12-01T09:11:05.140Z,176.20
2018-12-01T09:14:04.283Z,164.47
2018-12-01T09:17:03.503Z,166.95
2018-12-01T09:20:02.395Z,180.10
2018-12-01T09:23:06.863Z,175.80
2018-12-01T09:26:06.255Z,174.18
2018-12-01T09:29:08.161Z,170.47
2018-12-01T09:32:06.225Z,153.93
2018-12-01T09:35:03.963Z,190.03
2018-12-01T09:38:04.069Z,182.43
2018-12-01T09:41:03.860Z,173.85
2018-12-01T09:44:25.331Z,173.13
2018-12-01T09:47:24.765Z,177.38
2018-12-01T09:50:24.503Z,170.25
2018-12-01T09:53:23.802Z,188.37
2018-12-01T09:56:23.853Z,168.45
2018-12-01T09:59:22.021Z,176.15
2018-12-01T10:02:19.788Z,174.10
2018-12-01T10:05:22.367Z,177.35
2018-12-01T10:08:21.245Z,158.10
2018-12-01T10:11:18.296Z,168.00
2018-12-01T10:14:17.209Z,159.37
2018-12-01T10:17:15.665Z,181.75
2018-12-01T10:23:35.202Z,187.90
2018-12-01T10:27:02.827Z,176.60
2018-12-01T10:30:04.667Z,173.20
2018-12-01T10:33:17.511Z,185.00
2018-12-01T10:36:26.674Z,190.10
2018-12-01T10:39:44.213Z,178.02
2018-12-01T10:42:48.132Z,198.13
2018-12-01T10:45:46.284Z,204.65
2018-12-01T10:48:50.381Z,185.73
2018-12-01T10:51:50.865Z,185.55
2018-12-01T10:54:51.661Z,190.75
2018-12-01T10:58:03.767Z,182.80
2018-12-01T11:01:19.403Z,185.57
2018-12-01T11:04:37.840Z,202.15
2018-12-01T11:07:36.636Z,199.75
2018-12-01T11:10:34.859Z,171.35
2018-12-01T11:13:34.642Z,210.40
2018-12-01T11:16:35.124Z,199.65
2018-12-01T11:19:35.698Z,213.07
2018-12-01T11:22:35.559Z,235.43
2018-12-01T11:25:36.249Z,209.45
2018-12-01T11:28:40.096Z,213.55
2018-12-01T11:31:39.680Z,219.03
2018-12-01T11:34:38.865Z,222.17
2018-12-01T11:37:39.393Z,225.95
2018-12-01T11:40:42.429Z,230.18
2018-12-01T11:43:42.215Z,231.38
2018-12-01T11:46:41.315Z,257.02
2018-12-01T11:49:40.642Z,262.85
2018-12-01T11:52:40.379Z,234.83
2018-12-01T11:55:40.095Z,258.57
2018-12-01T11:58:43.377Z,268.65
2018-12-01T12:01:44.809Z,267.82
2018-12-01T12:04:42.025Z,289.70
2018-12-01T12:08:15.499Z,295.33
2018-12-01T12:11:16.277Z,269.27
2018-12-01T12:14:18.086Z,328.77
2018-12-01T12:17:23.972Z,257.62
2018-12-01T12:20:26.936Z,271.18
2018-12-01T12:23:28.388Z,261.90
2018-12-01T12:26:28.904Z,260.50
2018-12-01T12:29:30.250Z,270.50
2018-12-01T12:32:31.517Z,253.58
2018-12-01T12:35:32.585Z,257.20
2018-12-01T12:38:34.114Z,276.90
2018-12-01T12:41:38.870Z,271.50
2018-12-01T12:44:39.859Z,276.42
2018-12-01T12:47:37.764Z,266.77
2018-12-01T12:50:36.213Z,283.60
2018-12-01T12:53:34.667Z,303.18
2018-12-01T12:56:33.013Z,285.13
2018-12-01T12:59:29.871Z,290.05
2018-12-01T13:02:26.114Z,294.73
2018-12-01T13:05:31.062Z,295.35
2018-12-01T13:08:26.930Z,307.60
2018-12-01T13:11:24.560Z,324.58
2018-12-01T13:14:22.445Z,312.98
2018-12-01T13:17:20.319Z,309.90
2018-12-01T13:20:34.866Z,354.15
2018-12-01T13:23:31.882Z,307.20
2018-12-01T13:26:28.776Z,324.30
2018-12-01T13:29:29.953Z,313.68
2018-12-01T13:32:24.632Z,334.60
2018-12-01T13:35:22.112Z,293.82
2018-12-01T13:38:19.935Z,364.30
2018-12-01T13:41:17.305Z,343.30
2018-12-01T13:44:14.692Z,318.97
2018-12-01T13:47:12.106Z,322.98
2018-12-01T13:50:14.160Z,325.13
2018-12-01T13:53:13.955Z,329.60
2018-12-01T13:56:12.044Z,317.00
2018-12-01T13:59:09.853Z,332.52
2018-12-01T14:02:08.476Z,338.02
2018-12-01T14:05:06.040Z,325.20
2018-12-01T14:08:03.838Z,332.27
2018-12-01T14:11:02.484Z,333.25
2018-12-01T14:14:04.857Z,300.30
2018-12-01T14:17:02.712Z,326.62
2018-12-01T14:20:00.862Z,321.90
2018-12-01T14:22:58.322Z,319.07
2018-12-01T14:25:59.694Z,302.30
2018-12-01T14:28:53.914Z,292.82
2018-12-01T14:31:56.826Z,314.12
2018-12-01T14:34:53.815Z,286.87
2018-12-01T14:37:52.048Z,303.67
2018-12-01T14:40:53.706Z,280.55
2018-12-01T14:43:51.410Z,285.48
2018-12-01T14:46:49.047Z,277.77
2018-12-01T14:49:46.220Z,278.37
2018-12-01T14:52:43.750Z,294.45
2018-12-01T14:55:46.338Z,296.55
2018-12-01T14:58:44.578Z,299.90
2018-12-01T15:01:43.387Z,301.05
2018-12-01T15:04:40.821Z,295.45
2018-12-01T15:07:38.327Z,306.30
2018-12-01T15:10:35.834Z,298.65
2018-12-01T15:13:35.884Z,280.10
2018-12-01T15:16:33.681Z,279.50
2018-12-01T15:19:31.616Z,290.05
2018-12-01T15:22:28.954Z,293.63
2018-12-01T15:25:30.251Z,274.85
2018-12-01T15:28:28.433Z,300.55
2018-12-01T15:31:25.907Z,303.30
2018-12-01T15:34:23.273Z,312.80
2018-12-01T15:37:19.967Z,308.98
2018-12-01T15:40:23.942Z,321.37
2018-12-01T15:43:21.603Z,326.00
2018-12-01T15:46:18.997Z,298.35
2018-12-01T15:49:16.683Z,299.90
2018-12-01T15:52:24.359Z,315.87
2018-12-01T15:55:13.118Z,307.57
2018-12-01T15:58:10.866Z,296.82
2018-12-01T16:01:08.461Z,297.50
2018-12-01T16:04:06.335Z,293.77
2018-12-01T16:07:03.904Z,284.73
2018-12-01T16:10:01.344Z,286.98
2018-12-01T16:13:19.359Z,275.40
2018-12-01T16:16:20.023Z,276.25
2018-12-01T16:19:20.526Z,286.10
2018-12-01T16:22:15.484Z,275.25
2018-12-01T16:25:17.143Z,292.80
2018-12-01T16:28:15.132Z,281.10
2018-12-01T16:31:12.764Z,291.55
2018-12-01T16:34:10.643Z,277.15
2018-12-01T16:37:08.381Z,301.77
2018-12-01T16:40:05.868Z,294.52
2018-12-01T16:43:04.504Z,289.77
2018-12-01T16:46:01.991Z,302.07
2018-12-01T16:49:02.416Z,288.42
2018-12-01T16:51:59.619Z,282.85
2018-12-01T16:54:57.678Z,271.93
2018-12-01T16:57:55.359Z,274.50
2018-12-01T17:00:52.917Z,292.20
2018-12-01T17:03:50.160Z,273.57
2018-12-01T17:06:46.876Z,264.93
2018-12-01T17:09:43.877Z,273.00
2018-12-01T17:12:41.152Z,258.87
2018-12-01T17:15:37.768Z,253.22
2018-12-01T17:18:34.802Z,258.17
2018-12-01T17:21:32.045Z,246.87
2018-12-01T17:24:28.575Z,249.50
2018-12-01T17:27:25.315Z,231.68
2018-12-01T17:30:28.799Z,245.63
2018-12-01T17:33:26.600Z,233.15
2018-12-01T17:36:23.237Z,268.12
2018-12-01T17:39:20.283Z,251.60
2018-12-01T17:42:17.416Z,243.60
2018-12-01T17:45:15.872Z,231.43
2018-12-01T17:48:12.601Z,229.07
2018-12-01T17:51:08.585Z,234.83
2018-12-01T17:54:11.169Z,242.22
2018-12-01T17:57:07.364Z,242.43
2018-12-01T18:00:04.513Z,244.53
2018-12-01T18:03:02.900Z,234.15
2018-12-01T18:05:59.295Z,241.82
2018-12-01T18:08:56.634Z,245.55
2018-12-01T18:11:53.604Z,245.63
2018-12-01T18:14:50.217Z,249.27
2018-12-01T18:17:47.748Z,233.05
2018-12-01T18:20:44.625Z,244.93
2018-12-01T18:23:41.329Z,245.27
2018-12-01T18:26:37.900Z,218.52
2018-12-01T18:29:34.481Z,229.15
2018-12-01T18:32:31.150Z,237.65
2018-12-01T18:35:31.029Z,236.50
2018-12-01T18:38:27.832Z,238.82
2018-12-01T18:41:24.606Z,238.45
2018-12-01T18:44:21.362Z,239.85
2018-12-01T18:47:18.464Z,238.77
2018-12-01T18:50:26.959Z,250.62
2018-12-01T18:53:20.738Z,225.00
2018-12-01T18:56:17.338Z,245.50
2018-12-01T18:59:13.911Z,238.57
2018-12-01T19:02:10.363Z,239.25
2018-12-01T19:05:06.619Z,234.00
2018-12-01T19:08:03.453Z,236.20
2018-12-01T19:11:00.241Z,246.77
2018-12-01T19:13:56.694Z,233.10
2018-12-01T19:16:53.269Z,234.98
2018-12-01T19:19:49.726Z,239.45
2018-12-01T19:22:49.788Z,224.88
2018-12-01T19:25:44.607Z,233.82
2018-12-01T19:28:41.091Z,247.95
2018-12-01T19:31:38.040Z,244.75
2018-12-01T19:34:38.044Z,247.70
2018-12-01T19:37:34.585Z,245.35
2018-12-01T19:40:33.239Z,223.22
2018-12-01T19:43:30.438Z,245.30
2018-12-01T19:46:27.229Z,233.45
2018-12-01T19:49:24.149Z,237.70
2018-12-01T19:52:20.988Z,215.50
2018-12-01T19:55:18.293Z,224.58
2018-12-01T19:58:25.858Z,215.32
2018-12-01T20:01:22.220Z,216.90
2018-12-01T20:04:19.185Z,212.30
2018-12-01T20:07:16.175Z,228.55
2018-12-01T20:28:17.625Z,224.67
2018-12-01T20:31:14.171Z,208.65
2018-12-01T20:34:11.888Z,208.60
2018-12-01T20:37:14.908Z,212.27
2018-12-01T20:40:20.132Z,214.00
2018-12-01T20:43:13.910Z,224.15
2018-12-01T20:46:10.235Z,220.00
2018-12-01T20:49:06.640Z,214.57
2018-12-01T20:52:02.493Z,201.12
2018-12-01T20:55:00.754Z,218.20
2018-12-01T20:57:58.495Z,203.35
2018-12-01T21:00:57.385Z,209.60
2018-12-01T21:03:54.015Z,203.55
2018-12-01T21:06:50.272Z,210.05
2018-12-01T21:09:46.319Z,198.05
2018-12-01T21:12:43.625Z,204.28
2018-12-01T21:15:39.555Z,203.83
2018-12-01T21:18:35.877Z,201.75
2018-12-01T21:21:32.413Z,202.47
2018-12-01T21:24:28.796Z,202.57
2018-12-01T21:27:25.245Z,211.55
2018-12-01T21:30:29.457Z,207.52
2018-12-01T21:33:32.967Z,214.65
2018-12-01T21:36:29.419Z,209.30
2018-12-01T21:39:25.634Z,211.32
2018-12-01T21:42:21.592Z,198.95
2018-12-01T21:45:19.356Z,206.05
2018-12-01T21:48:19.678Z,207.43
2018-12-01T21:51:15.871Z,218.42
2018-12-01T21:54:12.458Z,224.67
2018-12-01T21:57:09.620Z,220.48
2018-12-01T22:00:06.095Z,229.23
2018-12-01T22:03:06.951Z,228.05
2018-12-01T22:06:07.615Z,245.20
2018-12-01T22:09:04.064Z,253.92
2018-12-01T22:12:01.097Z,248.38
2018-12-01T22:15:00.852Z,253.67
2018-12-01T22:17:57.169Z,257.80
2018-12-01T22:20:54.202Z,251.20
2018-12-01T22:23:51.052Z,255.77
2018-12-01T22:26:47.204Z,252.07
2018-12-01T22:29:43.588Z,281.47
2018-12-01T22:32:40.054Z,279.10
2018-12-01T22:35:36.660Z,292.82
2018-12-01T22:38:33.681Z,286.85
2018-12-01T22:41:29.827Z,288.55
2018-12-01T22:44:26.909Z,304.40
2018-12-01T22:47:23.544Z,304.40
2018-12-01T22:50:26.771Z,292.37
2018-12-01T22:53:23.304Z,302.32
2018-12-01T22:56:19.542Z,292.45
2018-12-01T22:59:15.522Z,298.40
2018-12-01T23:02:11.847Z,284.50
2018-12-01T23:05:07.937Z,315.68
2018-12-01T23:08:04.320Z,324.10
2018-12-01T23:11:00.863Z,306.87
2018-12-01T23:13:57.235Z,284.52
2018-12-01T23:16:53.773Z,319.32
2018-12-01T23:19:53.263Z,308.27
2018-12-01T23:22:49.549Z,312.32
2018-12-01T23:25:46.194Z,310.52
2018-12-01T23:28:42.868Z,307.35
2018-12-01T23:31:38.991Z,314.55
2018-12-01T23:34:35.229Z,318.48
2018-12-01T23:37:31.800Z,352.73
2018-12-01T23:40:28.322Z,341.40
2018-12-01T23:43:24.414Z,337.55
2018-12-01T23:46:20.932Z,360.57
2018-12-01T23:49:20.213Z,359.65
2018-12-01T23:52:17.134Z,358.00
2018-12-01T23:55:15.649Z,361.37
2018-12-01T23:58:12.244Z,347.35
